Shady Beach, South Dakota
Current Conditions -  °F | °C
As of 12:53 AM on Friday 19 Dec 2014 (Local Time) from KVVV Reporting Station
Haze Haze  
Wind Chill: -10°   Ceiling: 1300
Heat Index: -5°   Visibility: 5mi
Dew Point: -7°   Wind: 7mph
Humidity: 86%   Direction: 130°SE
Pressure: 30.18"   Gusts: NA
Location:  45.3641°N, 96.6682°W
Report Text: KVVV 190653Z AUTO 13006KT 5SM BR OVC013 M05/M07 A3018 RMK AO2
Loading
Personal Weather Stations






























Interactive Weather Map New forecast layout! Learn more

10-Day Weather Forecast

Advertisements
Track Severe Weather on mobile